Time;durP1;ratioP1;P1;durP2;ratioP2;P2;SDS_P1;SDS_P2;PMS_P1;PMS_P2;Temp;Humidity;BMP_temperature;BMP_pressure;BME280_temperature;BME280_humidity;BME280_pressure;Samples;Min_cycle;Max_cycle;Signal;HPM_P1;HPM_P2
2020/12/21 00:00:39;;;;;;;68.35;33.20;;;;;;;6.50;100.00;101164.47;10271786;28;20038;-71
2020/12/21 00:05:49;;;;;;;61.58;31.85;;;;;;;6.51;100.00;101169.59;10286602;28;20055;-70
2020/12/21 00:10:50;;;;;;;66.80;31.55;;;;;;;6.52;100.00;101166.09;10270830;28;20058;-71
2020/12/21 00:15:51;;;;;;;69.10;32.97;;;;;;;6.55;100.00;101179.06;10268933;28;20137;-71
2020/12/21 00:20:52;;;;;;;70.00;32.92;;;;;;;6.54;100.00;101169.53;10288814;28;20058;-71
2020/12/21 00:25:53;;;;;;;64.80;32.13;;;;;;;6.60;100.00;101173.72;10288096;28;20546;-71
2020/12/21 00:30:54;;;;;;;57.47;30.05;;;;;;;6.52;100.00;101171.31;10287609;28;20047;-71
2020/12/21 00:36:07;;;;;;;57.42;29.17;;;;;;;6.37;100.00;101171.69;10283417;28;20102;-71
2020/12/21 00:41:12;;;;;;;55.65;28.83;;;;;;;6.24;100.00;101172.91;10276453;28;20061;-71
2020/12/21 00:46:19;;;;;;;51.90;26.88;;;;;;;6.08;100.00;101169.81;10287730;28;20043;-71
2020/12/21 00:51:21;;;;;;;54.92;27.83;;;;;;;5.97;100.00;101166.59;10288573;28;20055;-71
2020/12/21 00:56:23;;;;;;;48.78;25.70;;;;;;;5.84;100.00;101155.56;10287876;28;20454;-71
2020/12/21 01:01:28;;;;;;;54.65;27.02;;;;;;;5.82;100.00;101167.75;10287043;28;20182;-71
2020/12/21 01:06:33;;;;;;;58.33;28.80;;;;;;;5.79;100.00;101172.19;10271509;28;20051;-71
2020/12/21 01:11:34;;;;;;;60.80;29.52;;;;;;;5.84;100.00;101165.97;10282073;28;20055;-72
2020/12/21 01:16:35;;;;;;;64.50;31.70;;;;;;;5.82;100.00;101183.34;10285056;28;20522;-73
2020/12/21 01:21:36;;;;;;;74.07;34.67;;;;;;;5.96;100.00;101196.91;10287743;28;20109;-73
2020/12/21 01:26:37;;;;;;;76.10;35.40;;;;;;;6.06;100.00;101181.09;10292582;28;20046;-72
2020/12/21 01:31:38;;;;;;;73.68;35.47;;;;;;;6.11;100.00;101184.44;10277427;28;20054;-72
2020/12/21 01:36:44;;;;;;;82.32;39.10;;;;;;;6.25;100.00;101192.78;10284498;28;20074;-71
2020/12/21 01:41:45;;;;;;;74.97;38.15;;;;;;;6.31;100.00;101177.91;10287979;28;20051;-71
2020/12/21 01:46:47;;;;;;;70.93;35.38;;;;;;;6.32;100.00;101182.22;10293884;28;20046;-72
2020/12/21 01:51:48;;;;;;;74.93;35.28;;;;;;;6.28;100.00;101174.53;10277352;28;20066;-72
2020/12/21 01:56:52;;;;;;;69.22;34.30;;;;;;;6.25;100.00;101177.19;10276748;28;20046;-71
2020/12/21 02:01:53;;;;;;;66.68;33.85;;;;;;;6.11;100.00;101168.84;10292827;28;20055;-71
2020/12/21 02:07:05;;;;;;;66.47;33.88;;;;;;;6.12;100.00;101166.22;10293524;28;20061;-71
2020/12/21 02:12:08;;;;;;;66.97;32.28;;;;;;;6.11;100.00;101169.72;10270232;28;20427;-71
2020/12/21 02:17:09;;;;;;;64.05;32.30;;;;;;;6.09;100.00;101165.47;10290733;28;20051;-71
2020/12/21 02:22:11;;;;;;;58.05;30.48;;;;;;;5.99;100.00;101165.66;10276008;28;20414;-71
2020/12/21 02:27:12;;;;;;;72.55;35.08;;;;;;;5.98;100.00;101157.91;10292913;28;20058;-70
2020/12/21 02:32:13;;;;;;;65.15;32.53;;;;;;;5.90;100.00;101165.00;10292389;28;20102;-71
2020/12/21 02:37:26;;;;;;;59.65;33.20;;;;;;;5.88;100.00;101161.63;10273889;28;20055;-71
2020/12/21 02:42:27;;;;;;;60.35;31.85;;;;;;;5.88;100.00;101159.88;10288273;28;20113;-71
2020/12/21 02:47:27;;;;;;;68.05;33.58;;;;;;;6.03;100.00;101160.41;10291643;28;20560;-71
2020/12/21 02:52:31;;;;;;;74.78;34.78;;;;;;;6.12;100.00;101161.03;10291679;28;20050;-71
2020/12/21 02:57:32;;;;;;;68.10;33.40;;;;;;;6.15;100.00;101163.53;10291689;28;20089;-70
2020/12/21 03:02:33;;;;;;;61.80;31.65;;;;;;;6.20;100.00;101176.44;10290526;28;20050;-71
2020/12/21 03:07:41;;;;;;;64.07;32.25;;;;;;;6.21;100.00;101176.41;10284321;28;20039;-71
2020/12/21 03:12:41;;;;;;;63.30;29.63;;;;;;;6.23;100.00;101173.78;10289419;28;20050;-71
2020/12/21 03:17:42;;;;;;;61.03;29.50;;;;;;;6.25;100.00;101171.97;10288984;28;20050;-71
2020/12/21 03:22:47;;;;;;;50.72;28.15;;;;;;;6.22;100.00;101172.06;10290747;28;20058;-71
2020/12/21 03:27:48;;;;;;;49.03;28.02;;;;;;;6.20;100.00;101161.69;10273321;28;20053;-71
2020/12/21 03:32:49;;;;;;;46.75;25.98;;;;;;;6.17;100.00;101147.94;10289474;28;20191;-71
2020/12/21 03:37:59;;;;;;;49.00;26.02;;;;;;;6.19;100.00;101148.75;10283974;28;20043;-71
2020/12/21 03:43:00;;;;;;;59.97;30.88;;;;;;;6.19;100.00;101141.81;10284232;28;20582;-71
2020/12/21 03:48:01;;;;;;;51.55;28.30;;;;;;;6.18;100.00;101145.31;10271917;28;20055;-71
2020/12/21 03:53:03;;;;;;;54.38;27.40;;;;;;;6.11;100.00;101138.53;10290023;28;20055;-70
2020/12/21 03:58:04;;;;;;;45.83;26.45;;;;;;;6.10;100.00;101130.75;10289353;28;20054;-70
2020/12/21 04:03:06;;;;;;;45.28;24.38;;;;;;;6.05;100.00;101128.28;10288116;28;20057;-70
2020/12/21 04:08:19;;;;;;;41.83;22.42;;;;;;;5.94;100.00;101119.91;10283184;28;20495;-71
2020/12/21 04:13:20;;;;;;;40.78;23.02;;;;;;;5.84;100.00;101108.81;10289266;28;20054;-71
2020/12/21 04:18:37;;;;;;;41.40;22.55;;;;;;;5.84;100.00;101101.03;10286881;28;20085;-71
2020/12/21 04:23:39;;;;;;;46.63;24.25;;;;;;;5.86;100.00;101104.44;10288743;28;20441;-70
2020/12/21 04:28:40;;;;;;;47.22;24.63;;;;;;;5.85;100.00;101107.06;10288759;28;20147;-71
2020/12/21 04:33:41;;;;;;;45.33;24.52;;;;;;;5.84;100.00;101103.63;10287587;28;20165;-70
2020/12/21 04:38:43;;;;;;;45.80;23.85;;;;;;;5.87;100.00;101093.22;10282151;28;20058;-70
2020/12/21 04:43:44;;;;;;;46.20;24.70;;;;;;;5.87;100.00;101103.59;10287953;28;20114;-70
2020/12/21 04:48:45;;;;;;;52.75;27.58;;;;;;;5.81;100.00;101098.50;10288250;28;20062;-71
2020/12/21 04:53:46;;;;;;;45.40;24.50;;;;;;;5.72;100.00;101100.47;10287740;28;20133;-70
2020/12/21 04:58:47;;;;;;;45.08;25.20;;;;;;;5.51;100.00;101109.59;10272125;28;20058;-70
2020/12/21 05:03:50;;;;;;;48.55;25.13;;;;;;;5.38;100.00;101113.38;10294794;28;20047;-70
2020/12/21 05:09:06;;;;;;;44.97;23.90;;;;;;;5.18;100.00;101112.03;10286461;28;20102;-71
2020/12/21 05:14:11;;;;;;;43.38;22.95;;;;;;;5.22;100.00;101122.34;10293389;28;20463;-70
2020/12/21 05:19:22;;;;;;;43.45;22.08;;;;;;;5.26;100.00;101113.63;10295202;28;20134;-70
2020/12/21 05:24:23;;;;;;;44.33;24.33;;;;;;;5.33;100.00;101099.63;10295421;28;20651;-70
2020/12/21 05:29:26;;;;;;;47.30;25.05;;;;;;;5.37;100.00;101103.88;10294740;28;20046;-70
2020/12/21 05:34:27;;;;;;;48.53;25.52;;;;;;;5.35;100.00;101103.03;10293742;28;20050;-70
2020/12/21 05:39:28;;;;;;;47.67;25.67;;;;;;;5.31;100.00;101116.97;10288519;28;20050;-70
2020/12/21 05:44:29;;;;;;;41.72;22.67;;;;;;;5.20;100.00;101114.59;10294218;28;20073;-70
2020/12/21 05:49:32;;;;;;;47.97;23.65;;;;;;;5.15;100.00;101117.28;10294126;28;20066;-70
2020/12/21 05:54:34;;;;;;;41.83;23.55;;;;;;;5.22;100.00;101123.22;10293837;28;20114;-70
2020/12/21 05:59:37;;;;;;;45.38;24.50;;;;;;;5.23;100.00;101098.97;10293506;28;20706;-70
2020/12/21 06:04:46;;;;;;;43.40;23.73;;;;;;;5.28;100.00;101096.28;10275529;28;20070;-70
2020/12/21 06:09:53;;;;;;;48.97;25.48;;;;;;;5.28;100.00;101081.56;10283716;28;20391;-71
2020/12/21 06:15:05;;;;;;;50.40;28.35;;;;;;;5.35;100.00;101087.44;10274099;28;20059;-71
2020/12/21 06:20:09;;;;;;;50.80;26.95;;;;;;;5.37;100.00;101075.31;10293066;28;20050;-71
2020/12/21 06:25:20;;;;;;;55.33;27.95;;;;;;;5.39;100.00;101068.31;10275699;28;20062;-70
2020/12/21 06:30:30;;;;;;;55.78;30.23;;;;;;;5.41;100.00;101063.97;10291856;28;20498;-70
2020/12/21 06:35:42;;;;;;;58.35;28.15;;;;;;;5.42;100.00;101069.13;10275062;28;20624;-70
2020/12/21 06:40:43;;;;;;;48.75;26.95;;;;;;;5.37;100.00;101076.16;10286720;28;20129;-70
2020/12/21 06:45:44;;;;;;;52.70;27.95;;;;;;;5.36;100.00;101073.59;10274103;28;20090;-70
2020/12/21 06:50:45;;;;;;;50.72;27.40;;;;;;;5.29;100.00;101078.06;10292250;28;20161;-71
2020/12/21 06:55:46;;;;;;;46.08;25.90;;;;;;;5.26;100.00;101064.31;10291198;28;20498;-69
2020/12/21 07:00:52;;;;;;;48.67;25.58;;;;;;;5.15;100.00;101062.78;10291000;28;20459;-70
2020/12/21 07:05:58;;;;;;;53.05;25.17;;;;;;;5.13;100.00;101061.09;10271896;28;20047;-70
2020/12/21 07:10:59;;;;;;;56.38;28.08;;;;;;;5.10;100.00;101050.81;10283958;28;20400;-70
2020/12/21 07:16:00;;;;;;;63.80;32.95;;;;;;;5.05;100.00;101052.63;10289293;28;20046;-70
2020/12/21 07:21:06;;;;;;;120.38;34.17;;;;;;;5.07;100.00;101062.13;10289475;28;20127;-70
2020/12/21 07:26:08;;;;;;;48.17;28.60;;;;;;;5.09;100.00;101064.66;10251142;29;20051;-70
2020/12/21 07:31:11;;;;;;;54.40;32.90;;;;;;;5.06;100.00;101070.78;10250160;29;20503;-70
2020/12/21 07:36:12;;;;;;;64.00;37.13;;;;;;;5.02;100.00;101079.53;10252473;28;20051;-71
2020/12/21 07:41:14;;;;;;;94.25;32.78;;;;;;;4.96;100.00;101084.81;10279819;28;20078;-71
2020/12/21 07:46:22;;;;;;;64.47;31.50;;;;;;;4.99;100.00;101099.47;10287120;28;20074;-71
2020/12/21 07:51:23;;;;;;;66.03;31.63;;;;;;;5.00;100.00;101115.00;10306543;28;20474;-72
2020/12/21 07:56:24;;;;;;;48.80;25.77;;;;;;;4.93;100.00;101105.63;10276286;28;20303;-71
2020/12/21 08:01:25;;;;;;;44.40;24.10;;;;;;;4.96;100.00;101108.16;10289977;28;20059;-71
2020/12/21 08:06:26;;;;;;;41.10;22.08;;;;;;;4.92;100.00;101103.06;10289393;28;20566;-71
2020/12/21 08:11:31;;;;;;;46.38;22.50;;;;;;;4.96;100.00;101100.38;10288341;28;20054;-72
2020/12/21 08:16:32;;;;;;;46.70;24.45;;;;;;;5.01;100.00;101103.75;10277056;28;20078;-72
2020/12/21 08:21:33;;;;;;;45.47;23.88;;;;;;;5.10;100.00;101093.19;10289060;28;20055;-71
2020/12/21 08:26:37;;;;;;;60.15;31.45;;;;;;;5.20;100.00;101101.63;10271139;28;20062;-71
2020/12/21 08:31:43;;;;;;;59.75;31.30;;;;;;;5.25;100.00;101101.50;10288230;28;20075;-71
2020/12/21 08:36:45;;;;;;;55.17;30.20;;;;;;;5.28;100.00;101107.53;10288017;28;20043;-71
2020/12/21 08:41:55;;;;;;;50.35;27.13;;;;;;;5.32;100.00;101092.72;10282661;28;20058;-71
2020/12/21 08:46:58;;;;;;;61.90;35.85;;;;;;;5.46;100.00;101096.72;10268105;28;20141;-71
2020/12/21 08:52:00;;;;;;;58.50;33.33;;;;;;;5.51;100.00;101097.47;10288516;28;20047;-70
2020/12/21 08:57:05;;;;;;;59.33;33.72;;;;;;;5.55;100.00;101095.66;10286281;28;20043;-70
2020/12/21 09:02:06;;;;;;;60.63;35.85;;;;;;;5.64;100.00;101084.22;10271738;28;20097;-70
2020/12/21 09:07:07;;;;;;;61.70;37.42;;;;;;;5.70;100.00;101095.31;10276053;28;20051;-70
2020/12/21 09:12:08;;;;;;;62.95;38.50;;;;;;;5.75;100.00;101092.59;10270744;28;20053;-70
2020/12/21 09:17:09;;;;;;;62.67;37.80;;;;;;;5.81;100.00;101097.66;10267042;28;20042;-69
2020/12/21 09:22:10;;;;;;;54.42;33.50;;;;;;;5.83;100.00;101095.88;10263248;28;20137;-70
2020/12/21 09:27:11;;;;;;;47.45;30.58;;;;;;;5.85;100.00;101101.88;10275809;28;20046;-70
2020/12/21 09:32:12;;;;;;;52.17;32.40;;;;;;;5.85;100.00;101089.75;10280656;28;20050;-70
2020/12/21 09:37:14;;;;;;;54.78;34.35;;;;;;;5.89;100.00;101078.41;10276431;28;20069;-70
2020/12/21 09:42:16;;;;;;;62.20;37.38;;;;;;;5.93;100.00;101084.41;10276674;28;20059;-70
2020/12/21 09:47:17;;;;;;;60.83;37.33;;;;;;;5.94;100.00;101080.94;10280077;28;20055;-70
2020/12/21 09:52:18;;;;;;;58.50;31.90;;;;;;;5.98;100.00;101079.97;10285991;28;20061;-70
2020/12/21 09:57:19;;;;;;;57.42;33.92;;;;;;;6.06;100.00;101066.78;10281812;28;20077;-70
2020/12/21 10:02:20;;;;;;;52.92;32.65;;;;;;;6.13;100.00;101058.78;10259572;28;20050;-69
2020/12/21 10:07:21;;;;;;;53.22;31.85;;;;;;;6.13;100.00;101052.75;10270025;28;20510;-70
2020/12/21 10:12:22;;;;;;;46.88;28.00;;;;;;;6.14;100.00;101044.06;10266060;28;20062;-70
2020/12/21 10:17:23;;;;;;;50.25;30.10;;;;;;;6.17;100.00;101054.34;10263781;28;20145;-70
2020/12/21 10:22:24;;;;;;;51.00;31.58;;;;;;;6.15;100.00;101054.38;10282170;28;20051;-70
2020/12/21 10:27:25;;;;;;;45.13;26.45;;;;;;;6.23;100.00;101038.63;10285199;28;20094;-70
2020/12/21 10:32:26;;;;;;;44.53;26.48;;;;;;;6.26;100.00;101028.97;10282402;28;20074;-70
2020/12/21 10:37:27;;;;;;;39.97;25.23;;;;;;;6.39;100.00;101019.13;10264239;28;20526;-70
2020/12/21 10:42:28;;;;;;;44.92;27.00;;;;;;;6.49;100.00;101017.13;10285606;28;20106;-70
2020/12/21 10:47:30;;;;;;;49.53;28.85;;;;;;;6.53;100.00;101027.38;10291578;28;20717;-70
2020/12/21 10:52:33;;;;;;;44.88;26.52;;;;;;;6.56;100.00;101032.50;10290117;28;20175;-70
2020/12/21 10:57:33;;;;;;;40.03;23.60;;;;;;;6.65;100.00;101029.66;10289214;28;20059;-70
2020/12/21 11:02:34;;;;;;;33.85;21.70;;;;;;;6.66;100.00;101013.13;10279407;28;20053;-70
2020/12/21 11:07:35;;;;;;;39.88;22.20;;;;;;;6.70;100.00;101009.56;10282659;28;20055;-70
2020/12/21 11:12:57;;;;;;;40.47;22.05;;;;;;;6.78;100.00;101010.19;10284578;28;20058;-70
2020/12/21 11:17:58;;;;;;;37.17;21.92;;;;;;;6.86;100.00;101005.59;10286741;28;20047;-70
2020/12/21 11:22:58;;;;;;;33.20;20.08;;;;;;;6.96;100.00;100953.31;10283939;28;20050;-69
2020/12/21 11:28:00;;;;;;;33.10;20.52;;;;;;;7.21;100.00;100943.84;10285201;28;20513;-69
2020/12/21 11:33:01;;;;;;;30.58;19.95;;;;;;;7.21;100.00;100944.66;10287708;28;20053;-70
2020/12/21 11:38:02;;;;;;;28.55;18.33;;;;;;;7.23;100.00;100948.09;10285188;28;20043;-70
2020/12/21 11:43:03;;;;;;;31.02;19.65;;;;;;;7.26;100.00;100947.97;10288607;28;20055;-69
2020/12/21 11:48:03;;;;;;;32.67;19.55;;;;;;;7.27;100.00;100941.03;10290363;28;20054;-72
2020/12/21 11:53:04;;;;;;;29.95;18.27;;;;;;;7.27;100.00;100938.41;10286654;28;20058;-70
2020/12/21 11:58:05;;;;;;;27.15;16.38;;;;;;;7.23;100.00;100924.66;10289682;28;20046;-70
2020/12/21 12:03:06;;;;;;;24.77;16.05;;;;;;;7.27;100.00;100914.97;10286528;28;20518;-71
2020/12/21 12:08:07;;;;;;;28.23;15.57;;;;;;;7.38;100.00;100910.28;10260559;28;20046;-70
2020/12/21 12:13:19;;;;;;;21.60;13.88;;;;;;;7.49;100.00;100900.38;10282297;28;20110;-70
2020/12/21 12:18:20;;;;;;;23.70;15.13;;;;;;;7.60;100.00;100894.78;10286550;28;20054;-70
2020/12/21 12:23:21;;;;;;;21.27;12.68;;;;;;;7.73;100.00;100857.84;10287034;28;20061;-70
2020/12/21 12:28:22;;;;;;;19.17;12.48;;;;;;;7.77;100.00;100870.78;10289229;28;20570;-70
2020/12/21 12:33:22;;;;;;;18.65;11.93;;;;;;;7.83;100.00;100845.31;10267663;28;20065;-70
2020/12/21 12:38:23;;;;;;;19.90;14.57;;;;;;;7.90;100.00;100832.94;10282998;28;20434;-70
2020/12/21 12:43:35;;;;;;;23.38;14.40;;;;;;;7.96;100.00;100810.13;10283529;28;20050;-70
2020/12/21 12:48:37;;;;;;;22.38;12.32;;;;;;;7.97;100.00;100790.13;10288800;28;20058;-71
2020/12/21 12:53:39;;;;;;;17.33;10.20;;;;;;;7.91;100.00;100769.50;10284319;28;20594;-70
2020/12/21 12:58:41;;;;;;;15.95;10.55;;;;;;;7.91;100.00;100759.91;10286297;28;20081;-70
2020/12/21 13:03:43;;;;;;;18.05;9.93;;;;;;;7.91;100.00;100751.25;10287086;28;20050;-70
2020/12/21 13:08:44;;;;;;;18.00;9.50;;;;;;;7.80;100.00;100728.19;10287887;28;20042;-71
2020/12/21 13:14:05;;;;;;;16.27;9.60;;;;;;;7.74;100.00;100703.22;10269588;28;20150;-71
2020/12/21 13:19:06;;;;;;;18.52;10.25;;;;;;;7.88;100.00;100707.03;10280136;28;20328;-71
2020/12/21 13:24:07;;;;;;;18.02;9.85;;;;;;;7.95;100.00;100688.50;10279043;28;20058;-71
2020/12/21 13:29:08;;;;;;;19.25;11.23;;;;;;;8.04;100.00;100695.13;10295881;28;20454;-71
2020/12/21 13:34:10;;;;;;;26.75;15.00;;;;;;;8.03;100.00;100698.63;10288674;28;20042;-69
2020/12/21 13:39:11;;;;;;;15.25;10.30;;;;;;;8.04;100.00;100714.22;10295453;28;20106;-70
2020/12/21 13:44:33;;;;;;;15.13;9.02;;;;;;;8.07;100.00;100723.69;10294529;28;20138;-71
2020/12/21 13:49:34;;;;;;;14.10;8.98;;;;;;;8.12;100.00;100701.75;10295975;28;20055;-70
2020/12/21 13:54:35;;;;;;;16.38;9.95;;;;;;;8.08;100.00;100694.94;10283629;28;20051;-71
2020/12/21 13:59:36;;;;;;;16.48;10.18;;;;;;;8.05;100.00;100689.00;10294987;28;20057;-69
2020/12/21 14:04:38;;;;;;;15.02;9.43;;;;;;;7.95;100.00;100685.91;10287496;28;20066;-70
2020/12/21 14:09:39;;;;;;;15.60;9.30;;;;;;;7.92;100.00;100686.03;10288497;28;20067;-70
2020/12/21 14:14:40;;;;;;;16.27;9.38;;;;;;;7.81;100.00;100688.19;10292918;28;20077;-69
2020/12/21 14:19:41;;;;;;;15.85;9.10;;;;;;;7.83;100.00;100682.91;10294191;28;20093;-71
2020/12/21 14:24:42;;;;;;;16.60;9.32;;;;;;;7.81;100.00;100684.75;10292657;28;20174;-69
2020/12/21 14:29:43;;;;;;;15.27;9.05;;;;;;;7.80;100.00;100683.03;10293852;28;20057;-69
2020/12/21 14:34:44;;;;;;;18.35;10.00;;;;;;;7.78;100.00;100695.25;10292432;28;20081;-70
2020/12/21 14:39:45;;;;;;;16.15;8.70;;;;;;;7.72;100.00;100684.16;10292206;28;20494;-70
2020/12/21 14:44:52;;;;;;;15.40;8.55;;;;;;;7.70;100.00;100682.53;10277406;28;20579;-70
2020/12/21 14:49:52;;;;;;;14.68;8.32;;;;;;;7.68;100.00;100673.94;10289767;28;20109;-69
2020/12/21 14:54:54;;;;;;;16.15;8.55;;;;;;;7.61;100.00;100678.53;10289054;28;20066;-70
2020/12/21 14:59:54;;;;;;;15.10;8.85;;;;;;;7.59;100.00;100654.28;10289076;28;20050;-70
2020/12/21 15:04:55;;;;;;;19.92;9.05;;;;;;;7.58;100.00;100643.91;10291021;28;20447;-70
2020/12/21 15:10:06;;;;;;;18.33;10.65;;;;;;;7.57;100.00;100623.97;10289900;28;20070;-70
2020/12/21 15:15:13;;;;;;;19.70;12.63;;;;;;;7.53;100.00;100607.63;10282980;28;20046;-71
2020/12/21 15:20:14;;;;;;;24.80;17.15;;;;;;;7.50;100.00;100586.06;10290763;28;20054;-70
2020/12/21 15:25:14;;;;;;;20.38;11.82;;;;;;;7.42;100.00;100581.16;10269095;28;20129;-70
2020/12/21 15:30:17;;;;;;;16.75;10.60;;;;;;;7.41;100.00;100576.03;10291146;28;20069;-70
2020/12/21 15:35:17;;;;;;;19.30;11.32;;;;;;;7.39;100.00;100594.28;10259300;28;20054;-70
2020/12/21 15:40:18;;;;;;;19.05;11.77;;;;;;;7.41;100.00;100581.22;10277013;28;20047;-70
2020/12/21 15:45:27;;;;;;;22.00;12.27;;;;;;;7.37;100.00;100567.47;10287538;28;20057;-70
2020/12/21 15:50:28;;;;;;;20.25;12.38;;;;;;;7.35;100.00;100555.41;10263848;28;20167;-70
2020/12/21 15:55:29;;;;;;;19.88;13.45;;;;;;;7.37;100.00;100577.88;10284223;28;20058;-70
2020/12/21 16:00:30;;;;;;;18.30;11.18;;;;;;;7.39;100.00;100570.88;10268585;28;20050;-70
2020/12/21 16:05:31;;;;;;;20.92;12.25;;;;;;;7.39;100.00;100563.06;10283579;28;20442;-70
2020/12/21 16:10:32;;;;;;;18.88;12.02;;;;;;;7.39;100.00;100562.19;10283381;28;20043;-72
2020/12/21 16:15:49;;;;;;;20.95;13.20;;;;;;;7.39;100.00;100551.78;10281037;28;20126;-70
2020/12/21 16:20:50;;;;;;;26.17;15.70;;;;;;;7.38;100.00;100557.91;10276259;28;20458;-70
2020/12/21 16:25:51;;;;;;;22.67;14.18;;;;;;;7.40;100.00;100543.06;10282034;28;20121;-71
2020/12/21 16:30:51;;;;;;;21.42;14.13;;;;;;;7.32;100.00;100545.97;10262045;28;20061;-71
2020/12/21 16:35:52;;;;;;;18.05;12.40;;;;;;;7.30;100.00;100542.59;10281737;28;20042;-70
2020/12/21 16:40:54;;;;;;;20.58;13.18;;;;;;;7.19;100.00;100535.19;10272022;28;20499;-70
2020/12/21 16:46:02;;;;;;;35.50;21.95;;;;;;;7.17;100.00;100536.97;10280361;28;20046;-73
2020/12/21 16:51:03;;;;;;;31.52;21.90;;;;;;;7.19;100.00;100534.31;10280478;28;20062;-72
2020/12/21 16:56:05;;;;;;;22.05;13.48;;;;;;;7.10;100.00;100521.66;10274373;28;20055;-72
2020/12/21 17:01:06;;;;;;;19.30;12.23;;;;;;;7.12;100.00;100523.28;10284403;28;20057;-73
2020/12/21 17:06:12;;;;;;;25.23;15.15;;;;;;;7.19;100.00;100529.13;10271001;28;20081;-76
2020/12/21 17:11:14;;;;;;;21.30;13.75;;;;;;;7.16;100.00;100517.06;10269668;28;20479;-71
2020/12/21 17:16:24;;;;;;;24.38;14.98;;;;;;;7.15;100.00;100506.72;10264914;28;20054;-72
2020/12/21 17:21:29;;;;;;;37.95;21.45;;;;;;;7.15;100.00;100511.94;10280119;28;20070;-72
2020/12/21 17:26:30;;;;;;;39.45;22.52;;;;;;;7.18;100.00;100511.81;10260721;28;20047;-72
2020/12/21 17:31:31;;;;;;;31.17;17.92;;;;;;;7.15;100.00;100502.38;10272062;28;20534;-71
2020/12/21 17:36:32;;;;;;;22.05;14.00;;;;;;;7.15;100.00;100499.78;10283678;28;20105;-70
2020/12/21 17:41:33;;;;;;;28.58;18.55;;;;;;;7.17;100.00;100494.47;10279296;28;20149;-71
2020/12/21 17:46:41;;;;;;;29.73;19.00;;;;;;;7.18;100.00;100486.63;10267345;28;20102;-72
2020/12/21 17:51:43;;;;;;;51.38;29.98;;;;;;;7.21;100.00;100488.28;10282290;28;20462;-72
2020/12/21 17:56:44;;;;;;;38.05;23.40;;;;;;;7.23;100.00;100489.03;10289005;28;20105;-72
2020/12/21 18:01:45;;;;;;;29.35;18.05;;;;;;;7.24;100.00;100483.78;10285128;28;20129;-71
2020/12/21 18:06:46;;;;;;;25.33;14.85;;;;;;;7.28;100.00;100482.75;10275963;28;20043;-71
2020/12/21 18:11:48;;;;;;;21.35;13.82;;;;;;;7.31;100.00;100466.19;10266748;28;20046;-71
2020/12/21 18:16:58;;;;;;;19.25;12.23;;;;;;;7.33;100.00;100472.16;10268644;28;20054;-71
2020/12/21 18:21:59;;;;;;;21.08;11.70;;;;;;;7.35;100.00;100487.72;10259809;28;20142;-71
2020/12/21 18:27:00;;;;;;;18.73;9.73;;;;;;;7.56;100.00;100492.09;10286394;28;20406;-71
2020/12/21 18:32:01;;;;;;;28.02;14.43;;;;;;;7.55;100.00;100486.03;10292262;28;20047;-71
2020/12/21 18:37:07;;;;;;;25.25;13.75;;;;;;;7.63;100.00;100470.91;10277028;28;20043;-71
2020/12/21 18:42:12;;;;;;;14.40;8.38;;;;;;;7.65;100.00;100465.66;10283971;28;20050;-72
2020/12/21 18:47:20;;;;;;;10.32;6.57;;;;;;;7.74;100.00;100455.69;10285130;28;20137;-72
2020/12/21 18:52:21;;;;;;;12.15;5.88;;;;;;;7.76;100.00;100457.41;10269047;28;20062;-72
2020/12/21 18:57:22;;;;;;;9.18;5.10;;;;;;;7.74;100.00;100460.91;10293207;28;20455;-72
2020/12/21 19:02:23;;;;;;;8.95;4.82;;;;;;;7.88;100.00;100449.03;10266131;28;20651;-72
2020/12/21 19:07:24;;;;;;;8.43;4.00;;;;;;;7.90;100.00;100450.69;10260720;28;20055;-72
2020/12/21 19:12:26;;;;;;;8.27;4.30;;;;;;;8.08;100.00;100457.72;10273124;28;20057;-71
2020/12/21 19:17:33;;;;;;;7.68;3.35;;;;;;;8.01;100.00;100464.13;10290735;28;20073;-72
2020/12/21 19:22:34;;;;;;;6.63;3.13;;;;;;;8.09;100.00;100453.34;10269231;28;20133;-72
2020/12/21 19:27:42;;;;;;;8.07;3.30;;;;;;;8.15;100.00;100451.34;10291377;28;20566;-72
2020/12/21 19:32:43;;;;;;;5.15;2.60;;;;;;;8.13;100.00;100450.53;10286027;28;20046;-71
2020/12/21 19:37:44;;;;;;;5.22;2.58;;;;;;;8.03;100.00;100451.00;10290458;28;20094;-71
2020/12/21 19:42:45;;;;;;;5.47;2.80;;;;;;;8.13;100.00;100453.16;10291324;28;20462;-71
2020/12/21 19:47:51;;;;;;;4.88;2.55;;;;;;;8.03;100.00;100443.19;10278813;28;20043;-71
2020/12/21 19:52:52;;;;;;;6.90;3.13;;;;;;;8.12;100.00;100445.41;10288832;28;20050;-71
2020/12/21 19:57:53;;;;;;;7.20;3.30;;;;;;;8.11;100.00;100439.34;10290628;28;20047;-72
2020/12/21 20:02:55;;;;;;;7.60;2.83;;;;;;;8.10;100.00;100442.84;10278450;28;20457;-71
2020/12/21 20:07:56;;;;;;;7.30;3.00;;;;;;;8.07;100.00;100429.97;10290462;28;20039;-72
2020/12/21 20:12:58;;;;;;;7.00;2.95;;;;;;;8.10;100.00;100429.81;10273272;28;20495;-71
2020/12/21 20:18:13;;;;;;;8.10;3.25;;;;;;;8.04;100.00;100427.47;10284007;28;20047;-71
2020/12/21 20:23:14;;;;;;;6.85;3.25;;;;;;;8.05;100.00;100425.72;10268002;28;20057;-70
2020/12/21 20:28:15;;;;;;;10.07;5.50;;;;;;;8.10;100.00;100432.44;10266594;28;20081;-71
2020/12/21 20:33:17;;;;;;;10.02;5.82;;;;;;;8.10;100.00;100422.00;10287457;28;20151;-71
2020/12/21 20:38:18;;;;;;;10.23;4.88;;;;;;;8.21;100.00;100418.94;10288775;28;20051;-71
2020/12/21 20:43:19;;;;;;;6.40;2.92;;;;;;;8.17;100.00;100414.78;10285593;28;20054;-71
2020/12/21 20:48:29;;;;;;;5.57;3.05;;;;;;;8.26;100.00;100411.75;10288489;28;20043;-71
2020/12/21 20:53:31;;;;;;;7.65;3.10;;;;;;;8.27;100.00;100408.25;10279259;28;20047;-71
2020/12/21 20:58:32;;;;;;;9.27;3.78;;;;;;;8.39;100.00;100412.91;10283219;28;20055;-71
2020/12/21 21:03:33;;;;;;;7.93;4.32;;;;;;;8.39;100.00;100415.53;10284377;28;20050;-71
2020/12/21 21:08:41;;;;;;;6.43;3.20;;;;;;;8.24;100.00;100412.72;10282287;28;20109;-71
2020/12/21 21:13:42;;;;;;;;;;;;;;;8.36;100.00;100402.63;10271012;28;20400;-71
2020/12/21 21:18:49;;;;;;;5.97;3.03;;;;;;;8.28;100.00;100399.47;10272336;28;19928;-70
2020/12/21 21:23:50;;;;;;;5.78;3.50;;;;;;;8.33;100.00;100389.72;10264746;28;20057;-71
2020/12/21 21:28:54;;;;;;;8.30;3.85;;;;;;;8.39;100.00;100399.03;10283734;28;20458;-70
2020/12/21 21:33:55;;;;;;;7.45;3.97;;;;;;;8.37;100.00;100403.47;10282276;28;20050;-69
2020/12/21 21:38:56;;;;;;;7.88;3.38;;;;;;;8.42;100.00;100404.97;10287251;28;20059;-72
2020/12/21 21:43:57;;;;;;;7.53;3.08;;;;;;;8.49;100.00;100408.97;10286427;28;20051;-72
2020/12/21 21:49:08;;;;;;;6.63;3.28;;;;;;;8.43;100.00;100409.25;10286713;28;20544;-72
2020/12/21 21:54:10;;;;;;;5.28;2.70;;;;;;;8.41;100.00;100410.25;10285007;28;20043;-72
2020/12/21 21:59:10;;;;;;;5.40;2.53;;;;;;;8.43;100.00;100409.25;10274286;28;20043;-71
2020/12/21 22:04:11;;;;;;;4.88;2.55;;;;;;;8.52;100.00;100398.41;10272771;28;20051;-71
2020/12/21 22:09:13;;;;;;;6.30;2.70;;;;;;;8.56;100.00;100399.97;10275023;28;20039;-69
2020/12/21 22:14:14;;;;;;;5.22;2.40;;;;;;;8.64;100.00;100399.59;10283686;28;20050;-69
2020/12/21 22:19:25;;;;;;;5.00;2.53;;;;;;;8.63;100.00;100404.91;10263353;28;20102;-70
2020/12/21 22:24:26;;;;;;;4.95;2.30;;;;;;;8.61;100.00;100414.56;10283045;28;20051;-70
2020/12/21 22:29:27;;;;;;;6.90;3.10;;;;;;;8.64;100.00;100396.13;10263835;28;20110;-70
2020/12/21 22:34:28;;;;;;;8.07;3.33;;;;;;;8.73;100.00;100400.97;10283155;28;20554;-70
2020/12/21 22:39:29;;;;;;;5.97;2.85;;;;;;;8.63;100.00;100392.72;10279938;28;20396;-70
2020/12/21 22:44:30;;;;;;;5.95;3.00;;;;;;;8.66;100.00;100400.38;10266478;28;577648;-70